Thunder radar more information blitzortung!


Radar de pluja more information rain snow radar


Visita la nostra xarxa de llocs de meteo:

Template documentation
and downloads

And another site



No particular awareness of the weather is required.    There are no Weather-warnings

Pagina Historial Weather Underground text

Diari Resum Novembre 1, 2017 Unitats:  Tant    Imperial   Mètric
« Previous Dia
SegĂźent Dia »
Diari Setmana Mensual Anual Personalitzada
  Maxima: Minima: Media:
Temperatura: 69.1 °F /  20.6 °C 50.9 °F /  10.5 °C 60.1 °F /  15.6 °C
Punt de rosada: 55.9 °F /  13.3 °C 43.9 °F /  6.6 °C 52 °F /  11.1 °C
Humitat: 89 % 61 % 75 %
Wind Speed: 10.5 mph /  16.9 km/h - 2 mph /  3.2 km/h
RĂ fegues de vent: 10.5 mph /  16.9 km/h - -
Vent:- - South
Pression baro: 30.3 in /  1024.9 hPa 30.2 in /  1020.9 hPa -
Precipitacions: 0 in /  0.0 mm    
Historical Graphs
 
 
Dades de taula per Novembre 1, 2017
Temps Temperatura Punt de rosada Pression baro Vent Wind Speed RĂ fegues de vent Humitat Rainfall Rate (Hourly)
00:03 50.9 °F /  10.5 °C 43.9 °F /  6.6 °C 30.2 in /  1023.9 hPa SW 2.3 mph /  3.7 km/h 2.3 mph /  3.7 km/h 77 % 0 in /  0.0 mm
03:25 54.9 °F /  12.7 °C 48 °F /  8.9 °C 30.3 in /  1024.9 hPa Calm   1 mph /  1.6 km/h 78 % 0 in /  0.0 mm
03:35 54.9 °F /  12.7 °C 47.5 °F /  8.6 °C 30.3 in /  1024.9 hPa East 2 mph /  3.2 km/h 2 mph /  3.2 km/h 76 % 0 in /  0.0 mm
03:45 55.2 °F /  12.9 °C 48 °F /  8.9 °C 30.3 in /  1024.9 hPa SE 1 mph /  1.6 km/h 2 mph /  3.2 km/h 77 % 0 in /  0.0 mm
03:55 55.6 °F /  13.1 °C 48 °F /  8.9 °C 30.3 in /  1024.9 hPa ESE 1 mph /  1.6 km/h 2 mph /  3.2 km/h 76 % 0 in /  0.0 mm
10:06 55.2 °F /  12.9 °C 47.5 °F /  8.6 °C 30.3 in /  1024.9 hPa SE 2.3 mph /  3.7 km/h 2.3 mph /  3.7 km/h 75 % 0 in /  0.0 mm
10:07 55.2 °F /  12.9 °C 47.5 °F /  8.6 °C 30.3 in /  1024.9 hPa SE 2.3 mph /  3.7 km/h 2.3 mph /  3.7 km/h 75 % 0 in /  0.0 mm
10:12 55 °F /  12.8 °C 47.3 °F /  8.5 °C 30.3 in /  1024.9 hPa ESE 2.3 mph /  3.7 km/h 2.3 mph /  3.7 km/h 75 % 0 in /  0.0 mm
10:17 55.4 °F /  13.0 °C 47.7 °F /  8.7 °C 30.3 in /  1024.9 hPa ESE 2.3 mph /  3.7 km/h 2.3 mph /  3.7 km/h 75 % 0 in /  0.0 mm
10:22 55.9 °F /  13.3 °C 48.6 °F /  9.2 °C 30.3 in /  1024.9 hPa ENE 2.3 mph /  3.7 km/h 2.3 mph /  3.7 km/h 76 % 0 in /  0.0 mm
10:27 55.9 °F /  13.3 °C 48 °F /  8.9 °C 30.3 in /  1024.9 hPa NNE 2.3 mph /  3.7 km/h 2.3 mph /  3.7 km/h 75 % 0 in /  0.0 mm
10:32 56.1 °F /  13.4 °C 48.4 °F /  9.1 °C 30.3 in /  1024.9 hPa NNE 2.3 mph /  3.7 km/h 2.3 mph /  3.7 km/h 75 % 0 in /  0.0 mm
10:37 56.3 °F /  13.5 °C 48 °F /  8.9 °C 30.3 in /  1024.9 hPa ENE 3.5 mph /  5.6 km/h 3.5 mph /  5.6 km/h 74 % 0 in /  0.0 mm
10:42 57.2 °F /  14.0 °C 48.9 °F /  9.4 °C 30.3 in /  1024.9 hPa NNW 3.5 mph /  5.6 km/h 3.5 mph /  5.6 km/h 74 % 0 in /  0.0 mm
10:47 57.9 °F /  14.4 °C 49.6 °F /  9.8 °C 30.3 in /  1024.9 hPa ENE 1.2 mph /  1.9 km/h 1.2 mph /  1.9 km/h 74 % 0 in /  0.0 mm
10:52 58.3 °F /  14.6 °C 50 °F /  10.0 °C 30.3 in /  1024.9 hPa NW 2.3 mph /  3.7 km/h 2.3 mph /  3.7 km/h 74 % 0 in /  0.0 mm
10:57 57.7 °F /  14.3 °C 48.7 °F /  9.3 °C 30.3 in /  1024.9 hPa NNE 2.4 mph /  3.9 km/h 2.6 mph /  4.2 km/h 72 % 0 in /  0.0 mm
11:02 56.5 °F /  13.6 °C 47.7 °F /  8.7 °C 30.3 in /  1024.9 hPa ENE 4.6 mph /  7.4 km/h 4.6 mph /  7.4 km/h 72 % 0 in /  0.0 mm
11:07 56.8 °F /  13.8 °C 48.4 °F /  9.1 °C 30.3 in /  1024.9 hPa NNE 1.2 mph /  1.9 km/h 1.2 mph /  1.9 km/h 73 % 0 in /  0.0 mm
11:12 57 °F /  13.9 °C 48 °F /  8.9 °C 30.3 in /  1024.9 hPa NNE 2.6 mph /  4.2 km/h 3.1 mph /  5.0 km/h 72 % 0 in /  0.0 mm
11:17 57.2 °F /  14.0 °C 48.4 °F /  9.1 °C 30.3 in /  1024.9 hPa ENE 2.4 mph /  3.9 km/h 2.4 mph /  3.9 km/h 72 % 0 in /  0.0 mm
11:22 57.2 °F /  14.0 °C 48.4 °F /  9.1 °C 30.2 in /  1023.9 hPa WSW 2.3 mph /  3.7 km/h 2.3 mph /  3.7 km/h 72 % 0 in /  0.0 mm
11:27 57.9 °F /  14.4 °C 48.9 °F /  9.4 °C 30.2 in /  1023.9 hPa ENE 1.2 mph /  1.9 km/h   72 % 0 in /  0.0 mm
11:32 58.1 °F /  14.5 °C 49.1 °F /  9.5 °C 30.2 in /  1023.9 hPa ESE 2.6 mph /  4.2 km/h 2.6 mph /  4.2 km/h 72 % 0 in /  0.0 mm
11:37 58.5 °F /  14.7 °C 49.5 °F /  9.7 °C 30.2 in /  1023.9 hPa NNE 2.3 mph /  3.7 km/h 2.3 mph /  3.7 km/h 72 % 0 in /  0.0 mm
11:42 59 °F /  15.0 °C 49.6 °F /  9.8 °C 30.2 in /  1023.9 hPa WSW 3.5 mph /  5.6 km/h 3.5 mph /  5.6 km/h 71 % 0 in /  0.0 mm
11:47 59.9 °F /  15.5 °C 50.2 °F /  10.1 °C 30.2 in /  1023.9 hPa ESE 3.5 mph /  5.6 km/h 3.5 mph /  5.6 km/h 70 % 0 in /  0.0 mm
11:52 60.3 °F /  15.7 °C 50.4 °F /  10.2 °C 30.2 in /  1023.9 hPa ENE 1.4 mph /  2.3 km/h 1.4 mph /  2.3 km/h 70 % 0 in /  0.0 mm
11:57 59.9 °F /  15.5 °C 49.6 °F /  9.8 °C 30.2 in /  1023.9 hPa SE 3.5 mph /  5.6 km/h 3.5 mph /  5.6 km/h 69 % 0 in /  0.0 mm
12:02 60.8 °F /  16.0 °C 51.1 °F /  10.6 °C 30.2 in /  1023.9 hPa ESE 2 mph /  3.2 km/h 2 mph /  3.2 km/h 70 % 0 in /  0.0 mm
12:07 61.5 °F /  16.4 °C 51.6 °F /  10.9 °C 30.2 in /  1023.9 hPa ENE 2.3 mph /  3.7 km/h 2.3 mph /  3.7 km/h 70 % 0 in /  0.0 mm
12:12 61.7 °F /  16.5 °C 51.4 °F /  10.8 °C 30.2 in /  1023.9 hPa ENE 2.4 mph /  3.9 km/h 2.4 mph /  3.9 km/h 69 % 0 in /  0.0 mm
12:17 61.9 °F /  16.6 °C 51.3 °F /  10.7 °C 30.2 in /  1023.9 hPa ESE 2.3 mph /  3.7 km/h 2.3 mph /  3.7 km/h 68 % 0 in /  0.0 mm
12:22 62.2 °F /  16.8 °C 51.4 °F /  10.8 °C 30.2 in /  1023.9 hPa ENE 3.5 mph /  5.6 km/h 3.5 mph /  5.6 km/h 68 % 0 in /  0.0 mm
12:27 62.1 °F /  16.7 °C 51.4 °F /  10.8 °C 30.2 in /  1023.9 hPa SE 3.5 mph /  5.6 km/h 3.5 mph /  5.6 km/h 68 % 0 in /  0.0 mm
12:32 62.8 °F /  17.1 °C 52.2 °F /  11.2 °C 30.2 in /  1023.9 hPa ESE 2.3 mph /  3.7 km/h 2.3 mph /  3.7 km/h 68 % 0 in /  0.0 mm
12:37 63.5 °F /  17.5 °C 52.7 °F /  11.5 °C 30.2 in /  1023.9 hPa SSE 3.5 mph /  5.6 km/h 3.5 mph /  5.6 km/h 68 % 0 in /  0.0 mm
12:42 63.7 °F /  17.6 °C 52.5 °F /  11.4 °C 30.2 in /  1023.9 hPa SE 3.5 mph /  5.6 km/h 3.5 mph /  5.6 km/h 67 % 0 in /  0.0 mm
12:47 63.7 °F /  17.6 °C 52.9 °F /  11.6 °C 30.2 in /  1023.9 hPa WSW 2.3 mph /  3.7 km/h   68 % 0 in /  0.0 mm
12:52 63.9 °F /  17.7 °C 52.7 °F /  11.5 °C 30.2 in /  1023.9 hPa ENE 2.9 mph /  4.7 km/h 2.9 mph /  4.7 km/h 67 % 0 in /  0.0 mm
12:57 63.9 °F /  17.7 °C 52.7 °F /  11.5 °C 30.2 in /  1023.9 hPa ENE 3.6 mph /  5.8 km/h 3.6 mph /  5.8 km/h 67 % 0 in /  0.0 mm
13:02 64.6 °F /  18.1 °C 53.4 °F /  11.9 °C 30.2 in /  1023.9 hPa SSE 2.6 mph /  4.2 km/h 2.6 mph /  4.2 km/h 67 % 0 in /  0.0 mm
13:07 64.2 °F /  17.9 °C 53.1 °F /  11.7 °C 30.2 in /  1022.9 hPa East 3.5 mph /  5.6 km/h 3.5 mph /  5.6 km/h 67 % 0 in /  0.0 mm
13:12 64.8 °F /  18.2 °C 53.4 °F /  11.9 °C 30.2 in /  1022.9 hPa SW 2.3 mph /  3.7 km/h 2.3 mph /  3.7 km/h 67 % 0 in /  0.0 mm
13:17 65.1 °F /  18.4 °C 54 °F /  12.2 °C 30.2 in /  1022.9 hPa SSE 3.5 mph /  5.6 km/h   67 % 0 in /  0.0 mm
13:22 65.1 °F /  18.4 °C 54 °F /  12.2 °C 30.2 in /  1022.9 hPa East 1.2 mph /  1.9 km/h 1.2 mph /  1.9 km/h 67 % 0 in /  0.0 mm
13:27 64.9 °F /  18.3 °C 53.2 °F /  11.8 °C 30.2 in /  1022.9 hPa SSE 5.8 mph /  9.3 km/h 5.8 mph /  9.3 km/h 66 % 0 in /  0.0 mm
13:32 65.5 °F /  18.6 °C 54.1 °F /  12.3 °C 30.2 in /  1022.9 hPa South 4.3 mph /  6.9 km/h 4.3 mph /  6.9 km/h 67 % 0 in /  0.0 mm
13:37 66.4 °F /  19.1 °C 54.7 °F /  12.6 °C 30.2 in /  1022.9 hPa SW 3.5 mph /  5.6 km/h 3.5 mph /  5.6 km/h 66 % 0 in /  0.0 mm
13:42 66.9 °F /  19.4 °C 54.9 °F /  12.7 °C 30.2 in /  1022.9 hPa SSW 4.6 mph /  7.4 km/h 4.6 mph /  7.4 km/h 65 % 0 in /  0.0 mm
13:47 66.4 °F /  19.1 °C 54.3 °F /  12.4 °C 30.2 in /  1022.9 hPa ESE 2.3 mph /  3.7 km/h 2.3 mph /  3.7 km/h 65 % 0 in /  0.0 mm
13:52 66.2 °F /  19.0 °C 54.1 °F /  12.3 °C 30.2 in /  1022.9 hPa SSE 2.3 mph /  3.7 km/h 2.3 mph /  3.7 km/h 65 % 0 in /  0.0 mm
13:57 66.6 °F /  19.2 °C 54.3 °F /  12.4 °C 30.2 in /  1022.9 hPa South 3.5 mph /  5.6 km/h 3.5 mph /  5.6 km/h 65 % 0 in /  0.0 mm
14:02 67.1 °F /  19.5 °C 54.9 °F /  12.7 °C 30.2 in /  1022.9 hPa West 2.9 mph /  4.7 km/h 2.9 mph /  4.7 km/h 65 % 0 in /  0.0 mm
14:07 67.3 °F /  19.6 °C 54.7 °F /  12.6 °C 30.2 in /  1021.9 hPa SW 4.6 mph /  7.4 km/h 4.6 mph /  7.4 km/h 64 % 0 in /  0.0 mm
14:12 66.9 °F /  19.4 °C 54.3 °F /  12.4 °C 30.2 in /  1021.9 hPa SW 5.8 mph /  9.3 km/h 5.8 mph /  9.3 km/h 64 % 0 in /  0.0 mm
14:17 66.9 °F /  19.4 °C 54.3 °F /  12.4 °C 30.2 in /  1021.9 hPa WSW 2.4 mph /  3.9 km/h 2.4 mph /  3.9 km/h 64 % 0 in /  0.0 mm
14:22 67.5 °F /  19.7 °C 54.3 °F /  12.4 °C 30.2 in /  1020.9 hPa SE 5.8 mph /  9.3 km/h 5.8 mph /  9.3 km/h 63 % 0 in /  0.0 mm
14:27 68 °F /  20.0 °C 54.9 °F /  12.7 °C 30.2 in /  1020.9 hPa WSW 2.4 mph /  3.9 km/h 2.4 mph /  3.9 km/h 63 % 0 in /  0.0 mm
14:32 68.4 °F /  20.2 °C 54.9 °F /  12.7 °C 30.2 in /  1020.9 hPa SSW 2 mph /  3.2 km/h 2 mph /  3.2 km/h 62 % 0 in /  0.0 mm
14:37 69.1 °F /  20.6 °C 55.9 °F /  13.3 °C 30.2 in /  1021.9 hPa SW 4.6 mph /  7.4 km/h 4.6 mph /  7.4 km/h 63 % 0 in /  0.0 mm
14:42 68.7 °F /  20.4 °C 55.2 °F /  12.9 °C 30.2 in /  1021.9 hPa SW 4.6 mph /  7.4 km/h 4.6 mph /  7.4 km/h 62 % 0 in /  0.0 mm
14:47 68 °F /  20.0 °C 54 °F /  12.2 °C 30.2 in /  1021.9 hPa South 1.2 mph /  1.9 km/h 1.2 mph /  1.9 km/h 61 % 0 in /  0.0 mm
14:52 67.8 °F /  19.9 °C 54.9 °F /  12.7 °C 30.2 in /  1021.9 hPa SW 3.5 mph /  5.6 km/h 3.5 mph /  5.6 km/h 63 % 0 in /  0.0 mm
14:57 67.6 °F /  19.8 °C 54.1 °F /  12.3 °C 30.2 in /  1021.9 hPa SW 3.6 mph /  5.8 km/h 3.6 mph /  5.8 km/h 62 % 0 in /  0.0 mm
15:02 67.1 °F /  19.5 °C 53.6 °F /  12.0 °C 30.2 in /  1021.9 hPa SW 2.3 mph /  3.7 km/h 2.4 mph /  3.9 km/h 62 % 0 in /  0.0 mm
15:07 67.1 °F /  19.5 °C 53.6 °F /  12.0 °C 30.2 in /  1021.9 hPa SW 3.1 mph /  5.0 km/h 3.1 mph /  5.0 km/h 62 % 0 in /  0.0 mm
15:12 67.8 °F /  19.9 °C 54.3 °F /  12.4 °C 30.2 in /  1021.9 hPa SW 3.5 mph /  5.6 km/h 3.5 mph /  5.6 km/h 62 % 0 in /  0.0 mm
15:17 68.5 °F /  20.3 °C 54.7 °F /  12.6 °C 30.2 in /  1021.9 hPa SW 10.5 mph /  16.9 km/h 10.5 mph /  16.9 km/h 61 % 0 in /  0.0 mm
15:22 68.2 °F /  20.1 °C 54.1 °F /  12.3 °C 30.2 in /  1021.9 hPa SW 6.9 mph /  11.1 km/h 6.9 mph /  11.1 km/h 61 % 0 in /  0.0 mm
15:27 68.4 °F /  20.2 °C 54.3 °F /  12.4 °C 30.2 in /  1021.9 hPa SW 6.9 mph /  11.1 km/h 6.9 mph /  11.1 km/h 61 % 0 in /  0.0 mm
15:28 68.4 °F /  20.2 °C 54.3 °F /  12.4 °C 30.2 in /  1021.9 hPa WNW 6.9 mph /  11.1 km/h 6.9 mph /  11.1 km/h 61 % 0 in /  0.0 mm
15:33 67.3 °F /  19.6 °C 53.8 °F /  12.1 °C 30.2 in /  1021.9 hPa SW 5.8 mph /  9.3 km/h 5.8 mph /  9.3 km/h 62 % 0 in /  0.0 mm
15:38 67.3 °F /  19.6 °C 53.8 °F /  12.1 °C 30.2 in /  1021.9 hPa SSW 2.3 mph /  3.7 km/h   62 % 0 in /  0.0 mm
15:43 68 °F /  20.0 °C 54 °F /  12.2 °C 30.2 in /  1021.9 hPa SW 4.6 mph /  7.4 km/h 4.6 mph /  7.4 km/h 61 % 0 in /  0.0 mm
15:48 68 °F /  20.0 °C 54 °F /  12.2 °C 30.2 in /  1021.9 hPa SW 6.9 mph /  11.1 km/h 6.9 mph /  11.1 km/h 61 % 0 in /  0.0 mm
15:53 67.5 °F /  19.7 °C 54 °F /  12.2 °C 30.2 in /  1021.9 hPa SSW 8.1 mph /  13.0 km/h 8.1 mph /  13.0 km/h 62 % 0 in /  0.0 mm
15:58 67.1 °F /  19.5 °C 53.6 °F /  12.0 °C 30.2 in /  1021.9 hPa SW 4.6 mph /  7.4 km/h 4.6 mph /  7.4 km/h 62 % 0 in /  0.0 mm
16:03 66.7 °F /  19.3 °C 53.2 °F /  11.8 °C 30.2 in /  1021.9 hPa SW 5.8 mph /  9.3 km/h 5.8 mph /  9.3 km/h 62 % 0 in /  0.0 mm
16:08 66.7 °F /  19.3 °C 53.8 °F /  12.1 °C 30.2 in /  1021.9 hPa South 4.6 mph /  7.4 km/h 4.6 mph /  7.4 km/h 63 % 0 in /  0.0 mm
16:13 66.4 °F /  19.1 °C 53.4 °F /  11.9 °C 30.2 in /  1021.9 hPa SW 5.8 mph /  9.3 km/h 5.8 mph /  9.3 km/h 63 % 0 in /  0.0 mm
16:18 66.2 °F /  19.0 °C 53.2 °F /  11.8 °C 30.2 in /  1021.9 hPa South 4.6 mph /  7.4 km/h 4.6 mph /  7.4 km/h 63 % 0 in /  0.0 mm
16:23 66.2 °F /  19.0 °C 53.2 °F /  11.8 °C 30.2 in /  1021.9 hPa SSW 5.8 mph /  9.3 km/h 5.8 mph /  9.3 km/h 63 % 0 in /  0.0 mm
16:28 66 °F /  18.9 °C 54 °F /  12.2 °C 30.2 in /  1021.9 hPa SW 4.6 mph /  7.4 km/h 4.6 mph /  7.4 km/h 65 % 0 in /  0.0 mm
16:33 65.8 °F /  18.8 °C 53.8 °F /  12.1 °C 30.2 in /  1021.9 hPa SW 5.8 mph /  9.3 km/h 5.8 mph /  9.3 km/h 65 % 0 in /  0.0 mm
16:38 65.1 °F /  18.4 °C 53.1 °F /  11.7 °C 30.2 in /  1021.9 hPa WSW 6.9 mph /  11.1 km/h 6.9 mph /  11.1 km/h 65 % 0 in /  0.0 mm
16:43 64.9 °F /  18.3 °C 53.2 °F /  11.8 °C 30.2 in /  1021.9 hPa South 3.5 mph /  5.6 km/h 3.6 mph /  5.8 km/h 66 % 0 in /  0.0 mm
16:48 64.8 °F /  18.2 °C 53.1 °F /  11.7 °C 30.2 in /  1021.9 hPa SW 9.2 mph /  14.8 km/h 9.2 mph /  14.8 km/h 66 % 0 in /  0.0 mm
16:53 64.6 °F /  18.1 °C 53.1 °F /  11.7 °C 30.2 in /  1021.9 hPa WSW 4.6 mph /  7.4 km/h 4.6 mph /  7.4 km/h 66 % 0 in /  0.0 mm
16:58 64.2 °F /  17.9 °C 53.1 °F /  11.7 °C 30.2 in /  1021.9 hPa SW 5.8 mph /  9.3 km/h 5.8 mph /  9.3 km/h 67 % 0 in /  0.0 mm
17:03 64.2 °F /  17.9 °C 53.1 °F /  11.7 °C 30.2 in /  1021.9 hPa WSW 5.8 mph /  9.3 km/h 5.8 mph /  9.3 km/h 67 % 0 in /  0.0 mm
17:08 64 °F /  17.8 °C 52.9 °F /  11.6 °C 30.2 in /  1021.9 hPa SSW 3.3 mph /  5.3 km/h 3.3 mph /  5.3 km/h 67 % 0 in /  0.0 mm
17:13 63.7 °F /  17.6 °C 52.9 °F /  11.6 °C 30.2 in /  1021.9 hPa SW 4.6 mph /  7.4 km/h 4.6 mph /  7.4 km/h 68 % 0 in /  0.0 mm
17:18 63.3 °F /  17.4 °C 52.5 °F /  11.4 °C 30.2 in /  1021.9 hPa SSW 5.8 mph /  9.3 km/h 5.8 mph /  9.3 km/h 68 % 0 in /  0.0 mm
17:23 63.1 °F /  17.3 °C 52.3 °F /  11.3 °C 30.2 in /  1021.9 hPa SW 4.6 mph /  7.4 km/h 4.6 mph /  7.4 km/h 68 % 0 in /  0.0 mm
17:28 62.8 °F /  17.1 °C 52.5 °F /  11.4 °C 30.2 in /  1021.9 hPa SW 4.6 mph /  7.4 km/h 4.6 mph /  7.4 km/h 69 % 0 in /  0.0 mm
17:33 62.6 °F /  17.0 °C 52.7 °F /  11.5 °C 30.2 in /  1021.9 hPa SW 4.6 mph /  7.4 km/h 4.6 mph /  7.4 km/h 70 % 0 in /  0.0 mm
17:38 62.2 °F /  16.8 °C 52.7 °F /  11.5 °C 30.2 in /  1021.9 hPa WSW 3.5 mph /  5.6 km/h 3.5 mph /  5.6 km/h 71 % 0 in /  0.0 mm
17:43 62.1 °F /  16.7 °C 52.9 °F /  11.6 °C 30.2 in /  1021.9 hPa WSW 2.3 mph /  3.7 km/h 2.3 mph /  3.7 km/h 72 % 0 in /  0.0 mm
17:48 61.9 °F /  16.6 °C 52.9 °F /  11.6 °C 30.2 in /  1021.9 hPa SW 4.6 mph /  7.4 km/h 4.6 mph /  7.4 km/h 72 % 0 in /  0.0 mm
17:53 61.7 °F /  16.5 °C 53.1 °F /  11.7 °C 30.2 in /  1022.9 hPa SW 2.3 mph /  3.7 km/h 2.3 mph /  3.7 km/h 73 % 0 in /  0.0 mm
17:58 61.5 °F /  16.4 °C 52.9 °F /  11.6 °C 30.2 in /  1022.9 hPa SW 2.4 mph /  3.9 km/h 2.4 mph /  3.9 km/h 73 % 0 in /  0.0 mm
18:03 61.3 °F /  16.3 °C 53.1 °F /  11.7 °C 30.2 in /  1022.9 hPa WSW 2.3 mph /  3.7 km/h 2.3 mph /  3.7 km/h 74 % 0 in /  0.0 mm
18:08 61.2 °F /  16.2 °C 52.9 °F /  11.6 °C 30.2 in /  1020.9 hPa WSW 2.3 mph /  3.7 km/h 2.3 mph /  3.7 km/h 74 % 0 in /  0.0 mm
18:13 61 °F /  16.1 °C 52.5 °F /  11.4 °C 30.2 in /  1020.9 hPa WSW 2.3 mph /  3.7 km/h 2.3 mph /  3.7 km/h 74 % 0 in /  0.0 mm
18:15 56.1 °F /  13.4 °C 51.6 °F /  10.9 °C 30.2 in /  1022.9 hPa Calm     85 % 0 in /  0.0 mm
18:18 60.8 °F /  16.0 °C 52.9 °F /  11.6 °C 30.2 in /  1020.9 hPa WSW 1.4 mph /  2.3 km/h 1.4 mph /  2.3 km/h 75 % 0 in /  0.0 mm
18:23 60.8 °F /  16.0 °C 52.9 °F /  11.6 °C 30.2 in /  1021.9 hPa SW 1.2 mph /  1.9 km/h   75 % 0 in /  0.0 mm
18:25 56.1 °F /  13.4 °C 51.6 °F /  10.9 °C 30.2 in /  1021.9 hPa Calm   1 mph /  1.6 km/h 85 % 0 in /  0.0 mm
18:28 60.6 °F /  15.9 °C 53.1 °F /  11.7 °C 30.2 in /  1021.9 hPa SW 1.2 mph /  1.9 km/h   76 % 0 in /  0.0 mm
18:33 60.4 °F /  15.8 °C 52.9 °F /  11.6 °C 30.2 in /  1021.9 hPa WSW 1.2 mph /  1.9 km/h   76 % 0 in /  0.0 mm
18:35 56.3 °F /  13.5 °C 51.8 °F /  11.0 °C 30.2 in /  1021.9 hPa Calm     85 % 0 in /  0.0 mm
18:38 60.3 °F /  15.7 °C 52.7 °F /  11.5 °C 30.2 in /  1021.9 hPa Calm     76 % 0 in /  0.0 mm
18:43 60.1 °F /  15.6 °C 52.5 °F /  11.4 °C 30.2 in /  1021.9 hPa Calm     76 % 0 in /  0.0 mm
18:45 55.9 °F /  13.3 °C 51.4 °F /  10.8 °C 30.2 in /  1021.9 hPa Calm   2 mph /  3.2 km/h 85 % 0 in /  0.0 mm
18:48 60.1 °F /  15.6 °C 52.9 °F /  11.6 °C 30.2 in /  1021.9 hPa WSW 1.6 mph /  2.6 km/h 1.6 mph /  2.6 km/h 77 % 0 in /  0.0 mm
18:53 60.1 °F /  15.6 °C 52.9 °F /  11.6 °C 30.2 in /  1021.9 hPa West 1.6 mph /  2.6 km/h 1.6 mph /  2.6 km/h 77 % 0 in /  0.0 mm
18:55 55.8 °F /  13.2 °C 51.3 °F /  10.7 °C 30.2 in /  1021.9 hPa Calm   2 mph /  3.2 km/h 85 % 0 in /  0.0 mm
18:58 60.1 °F /  15.6 °C 52.9 °F /  11.6 °C 30.2 in /  1021.9 hPa West 2.3 mph /  3.7 km/h 2.3 mph /  3.7 km/h 77 % 0 in /  0.0 mm
19:03 59.9 °F /  15.5 °C 52.7 °F /  11.5 °C 30.2 in /  1021.9 hPa WSW 1.2 mph /  1.9 km/h 1.2 mph /  1.9 km/h 77 % 0 in /  0.0 mm
19:05 55.8 °F /  13.2 °C 51.6 °F /  10.9 °C 30.2 in /  1021.9 hPa Calm   2 mph /  3.2 km/h 86 % 0 in /  0.0 mm
19:08 59.9 °F /  15.5 °C 53.1 °F /  11.7 °C 30.2 in /  1021.9 hPa Calm     78 % 0 in /  0.0 mm
19:13 59.7 °F /  15.4 °C 52.9 °F /  11.6 °C 30.2 in /  1021.9 hPa Calm     78 % 0 in /  0.0 mm
19:15 55.8 °F /  13.2 °C 51.6 °F /  10.9 °C 30.2 in /  1020.9 hPa Calm     86 % 0 in /  0.0 mm
19:18 59.4 °F /  15.2 °C 52.5 °F /  11.4 °C 30.2 in /  1021.9 hPa Calm     78 % 0 in /  0.0 mm
19:23 59.2 °F /  15.1 °C 52.3 °F /  11.3 °C 30.2 in /  1021.9 hPa Calm     78 % 0 in /  0.0 mm
19:25 55.6 °F /  13.1 °C 51.4 °F /  10.8 °C 30.2 in /  1021.9 hPa NE 1 mph /  1.6 km/h 2 mph /  3.2 km/h 86 % 0 in /  0.0 mm
19:28 59.2 °F /  15.1 °C 52.7 °F /  11.5 °C 30.2 in /  1021.9 hPa Calm     79 % 0 in /  0.0 mm
19:33 59.2 °F /  15.1 °C 52.7 °F /  11.5 °C 30.2 in /  1021.9 hPa Calm     79 % 0 in /  0.0 mm
19:35 55.6 °F /  13.1 °C 51.4 °F /  10.8 °C 30.2 in /  1021.9 hPa Calm   2 mph /  3.2 km/h 86 % 0 in /  0.0 mm
19:38 59 °F /  15.0 °C 52.5 °F /  11.4 °C 30.2 in /  1021.9 hPa Calm     79 % 0 in /  0.0 mm
19:43 58.8 °F /  14.9 °C 52.3 °F /  11.3 °C 30.2 in /  1021.9 hPa Calm     79 % 0 in /  0.0 mm
19:45 55.4 °F /  13.0 °C 51.6 °F /  10.9 °C 30.2 in /  1020.9 hPa Calm     87 % 0 in /  0.0 mm
19:48 58.8 °F /  14.9 °C 52.3 °F /  11.3 °C 30.2 in /  1021.9 hPa West 0.9 mph /  1.4 km/h   79 % 0 in /  0.0 mm
19:53 58.8 °F /  14.9 °C 52.3 °F /  11.3 °C 30.2 in /  1021.9 hPa West 1.4 mph /  2.3 km/h 1.4 mph /  2.3 km/h 79 % 0 in /  0.0 mm
19:55 55.4 °F /  13.0 °C 51.6 °F /  10.9 °C 30.2 in /  1021.9 hPa Calm   2 mph /  3.2 km/h 87 % 0 in /  0.0 mm
19:58 58.8 °F /  14.9 °C 52.3 °F /  11.3 °C 30.2 in /  1021.9 hPa Calm     79 % 0 in /  0.0 mm
20:03 58.6 °F /  14.8 °C 52.5 °F /  11.4 °C 30.2 in /  1021.9 hPa Calm     80 % 0 in /  0.0 mm
20:05 55.4 °F /  13.0 °C 51.6 °F /  10.9 °C 30.2 in /  1021.9 hPa Calm     87 % 0 in /  0.0 mm
20:08 58.8 °F /  14.9 °C 52.7 °F /  11.5 °C 30.2 in /  1021.9 hPa Calm     80 % 0 in /  0.0 mm
20:13 58.8 °F /  14.9 °C 52.7 °F /  11.5 °C 30.2 in /  1021.9 hPa Calm     80 % 0 in /  0.0 mm
20:15 55.6 °F /  13.1 °C 51.8 °F /  11.0 °C 30.2 in /  1021.9 hPa Calm     87 % 0 in /  0.0 mm
20:18 58.8 °F /  14.9 °C 52.7 °F /  11.5 °C 30.2 in /  1021.9 hPa Calm     80 % 0 in /  0.0 mm
20:23 58.8 °F /  14.9 °C 52.7 °F /  11.5 °C 30.2 in /  1021.9 hPa Calm     80 % 0 in /  0.0 mm
20:25 55.6 °F /  13.1 °C 51.8 °F /  11.0 °C 30.2 in /  1021.9 hPa Calm   2 mph /  3.2 km/h 87 % 0 in /  0.0 mm
20:28 58.6 °F /  14.8 °C 52.5 °F /  11.4 °C 30.2 in /  1021.9 hPa Calm     80 % 0 in /  0.0 mm
20:33 58.3 °F /  14.6 °C 52.2 °F /  11.2 °C 30.2 in /  1021.9 hPa West 1.2 mph /  1.9 km/h 1.2 mph /  1.9 km/h 80 % 0 in /  0.0 mm
20:35 55.6 °F /  13.1 °C 51.8 °F /  11.0 °C 30.2 in /  1021.9 hPa SW 1 mph /  1.6 km/h 2 mph /  3.2 km/h 87 % 0 in /  0.0 mm
20:38 58.1 °F /  14.5 °C 52 °F /  11.1 °C 30.2 in /  1021.9 hPa Calm     80 % 0 in /  0.0 mm
20:43 58.1 °F /  14.5 °C 52 °F /  11.1 °C 30.2 in /  1021.9 hPa Calm     80 % 0 in /  0.0 mm
20:45 55.6 °F /  13.1 °C 51.8 °F /  11.0 °C 30.2 in /  1020.9 hPa Calm     87 % 0 in /  0.0 mm
20:48 57.9 °F /  14.4 °C 51.8 °F /  11.0 °C 30.2 in /  1021.9 hPa Calm     80 % 0 in /  0.0 mm
20:53 57.7 °F /  14.3 °C 51.6 °F /  10.9 °C 30.2 in /  1021.9 hPa Calm     80 % 0 in /  0.0 mm
20:55 55.4 °F /  13.0 °C 51.6 °F /  10.9 °C 30.2 in /  1021.9 hPa Calm   2 mph /  3.2 km/h 87 % 0 in /  0.0 mm
20:58 57.7 °F /  14.3 °C 52 °F /  11.1 °C 30.2 in /  1021.9 hPa Calm     81 % 0 in /  0.0 mm
21:03 57.9 °F /  14.4 °C 51.8 °F /  11.0 °C 30.2 in /  1021.9 hPa West 1.2 mph /  1.9 km/h 1.2 mph /  1.9 km/h 80 % 0 in /  0.0 mm
21:05 55.2 °F /  12.9 °C 51.6 °F /  10.9 °C 30.2 in /  1021.9 hPa Calm     88 % 0 in /  0.0 mm
21:08 57.9 °F /  14.4 °C 52.2 °F /  11.2 °C 30.2 in /  1021.9 hPa Calm     81 % 0 in /  0.0 mm
21:13 57.7 °F /  14.3 °C 52 °F /  11.1 °C 30.2 in /  1021.9 hPa Calm     81 % 0 in /  0.0 mm
21:15 55 °F /  12.8 °C 51.4 °F /  10.8 °C 30.2 in /  1021.9 hPa Calm     88 % 0 in /  0.0 mm
21:18 57.7 °F /  14.3 °C 52 °F /  11.1 °C 30.2 in /  1021.9 hPa Calm     81 % 0 in /  0.0 mm
21:23 57.6 °F /  14.2 °C 52.2 °F /  11.2 °C 30.2 in /  1021.9 hPa Calm     82 % 0 in /  0.0 mm
21:25 54.9 °F /  12.7 °C 51.4 °F /  10.8 °C 30.2 in /  1021.9 hPa Calm   1 mph /  1.6 km/h 88 % 0 in /  0.0 mm
21:28 57.4 °F /  14.1 °C 52 °F /  11.1 °C 30.2 in /  1021.9 hPa Calm     82 % 0 in /  0.0 mm
21:33 57.2 °F /  14.0 °C 51.8 °F /  11.0 °C 30.2 in /  1021.9 hPa Calm     82 % 0 in /  0.0 mm
21:35 54.9 °F /  12.7 °C 51.4 °F /  10.8 °C 30.2 in /  1021.9 hPa Calm   1 mph /  1.6 km/h 88 % 0 in /  0.0 mm
21:38 57.2 °F /  14.0 °C 51.8 °F /  11.0 °C 30.2 in /  1022.9 hPa Calm     82 % 0 in /  0.0 mm
21:43 57.2 °F /  14.0 °C 51.8 °F /  11.0 °C 30.2 in /  1022.9 hPa Calm     82 % 0 in /  0.0 mm
21:45 54.7 °F /  12.6 °C 51.3 °F /  10.7 °C 30.2 in /  1021.9 hPa Calm     88 % 0 in /  0.0 mm
21:48 57 °F /  13.9 °C 51.6 °F /  10.9 °C 30.2 in /  1022.9 hPa Calm     82 % 0 in /  0.0 mm
21:53 57.2 °F /  14.0 °C 51.8 °F /  11.0 °C 30.2 in /  1022.9 hPa West 1.2 mph /  1.9 km/h 1.2 mph /  1.9 km/h 82 % 0 in /  0.0 mm
21:55 54.7 °F /  12.6 °C 51.3 °F /  10.7 °C 30.2 in /  1021.9 hPa West 2 mph /  3.2 km/h 2 mph /  3.2 km/h 88 % 0 in /  0.0 mm
21:58 57.2 °F /  14.0 °C 52.2 °F /  11.2 °C 30.2 in /  1022.9 hPa Calm     83 % 0 in /  0.0 mm
22:03 57 °F /  13.9 °C 52 °F /  11.1 °C 30.2 in /  1022.9 hPa Calm     83 % 0 in /  0.0 mm
22:05 54.7 °F /  12.6 °C 51.3 °F /  10.7 °C 30.2 in /  1021.9 hPa North 1 mph /  1.6 km/h 2 mph /  3.2 km/h 88 % 0 in /  0.0 mm
22:08 57 °F /  13.9 °C 52 °F /  11.1 °C 30.2 in /  1022.9 hPa Calm     83 % 0 in /  0.0 mm
22:13 57 °F /  13.9 °C 52 °F /  11.1 °C 30.2 in /  1022.9 hPa Calm     83 % 0 in /  0.0 mm
22:15 54.5 °F /  12.5 °C 51.3 °F /  10.7 °C 30.2 in /  1021.9 hPa Calm   1 mph /  1.6 km/h 89 % 0 in /  0.0 mm
22:18 57 °F /  13.9 °C 52 °F /  11.1 °C 30.2 in /  1022.9 hPa Calm     83 % 0 in /  0.0 mm
22:23 57.2 °F /  14.0 °C 52.2 °F /  11.2 °C 30.2 in /  1022.9 hPa Calm     83 % 0 in /  0.0 mm
22:25 54.5 °F /  12.5 °C 51.3 °F /  10.7 °C 30.2 in /  1020.9 hPa Calm   1 mph /  1.6 km/h 89 % 0 in /  0.0 mm
22:28 57.2 °F /  14.0 °C 52.2 °F /  11.2 °C 30.2 in /  1022.9 hPa WSW 2.3 mph /  3.7 km/h 2.3 mph /  3.7 km/h 83 % 0 in /  0.0 mm
22:33 57.4 °F /  14.1 °C 52.3 °F /  11.3 °C 30.2 in /  1022.9 hPa WSW 1.2 mph /  1.9 km/h 1.2 mph /  1.9 km/h 83 % 0 in /  0.0 mm
22:35 53.8 °F /  12.1 °C 50 °F /  10.0 °C 30.2 in /  1020.9 hPa West 2 mph /  3.2 km/h 3 mph /  4.8 km/h 87 % 0 in /  0.0 mm
22:38 57.2 °F /  14.0 °C 52.2 °F /  11.2 °C 30.2 in /  1022.9 hPa Calm     83 % 0 in /  0.0 mm
22:43 57.2 °F /  14.0 °C 52.2 °F /  11.2 °C 30.2 in /  1022.9 hPa Calm     83 % 0 in /  0.0 mm
22:45 53.8 °F /  12.1 °C 50.4 °F /  10.2 °C 30.2 in /  1020.9 hPa West 2 mph /  3.2 km/h 3 mph /  4.8 km/h 88 % 0 in /  0.0 mm
22:48 57.2 °F /  14.0 °C 52.2 °F /  11.2 °C 30.2 in /  1022.9 hPa WSW 1.4 mph /  2.3 km/h 1.4 mph /  2.3 km/h 83 % 0 in /  0.0 mm
22:53 57.2 °F /  14.0 °C 52.2 °F /  11.2 °C 30.2 in /  1022.9 hPa Calm     83 % 0 in /  0.0 mm
22:55 53.6 °F /  12.0 °C 49.8 °F /  9.9 °C 30.2 in /  1020.9 hPa SW 2 mph /  3.2 km/h 4 mph /  6.4 km/h 87 % 0 in /  0.0 mm
22:58 57.2 °F /  14.0 °C 52.3 °F /  11.3 °C 30.2 in /  1022.9 hPa SE 1.4 mph /  2.3 km/h 1.4 mph /  2.3 km/h 84 % 0 in /  0.0 mm
23:03 57 °F /  13.9 °C 52.2 °F /  11.2 °C 30.2 in /  1022.9 hPa Calm     84 % 0 in /  0.0 mm
23:05 54 °F /  12.2 °C 50.7 °F /  10.4 °C 30.2 in /  1020.9 hPa Calm   2 mph /  3.2 km/h 89 % 0 in /  0.0 mm
23:08 57 °F /  13.9 °C 52.2 °F /  11.2 °C 30.2 in /  1022.9 hPa Calm     84 % 0 in /  0.0 mm
23:13 57.2 °F /  14.0 °C 52.3 °F /  11.3 °C 30.2 in /  1022.9 hPa Calm     84 % 0 in /  0.0 mm
23:15 53.8 °F /  12.1 °C 50.5 °F /  10.3 °C 30.2 in /  1020.9 hPa Calm     89 % 0 in /  0.0 mm
23:18 57.2 °F /  14.0 °C 52.3 °F /  11.3 °C 30.2 in /  1022.9 hPa Calm     84 % 0 in /  0.0 mm
23:23 56.8 °F /  13.8 °C 52.2 °F /  11.2 °C 30.2 in /  1022.9 hPa SW 1.2 mph /  1.9 km/h   84 % 0 in /  0.0 mm
23:25 53.8 °F /  12.1 °C 50.5 °F /  10.3 °C 30.2 in /  1020.9 hPa WSW 1 mph /  1.6 km/h 2 mph /  3.2 km/h 89 % 0 in /  0.0 mm
23:28 56.8 °F /  13.8 °C 52.2 °F /  11.2 °C 30.2 in /  1022.9 hPa WNW 1.2 mph /  1.9 km/h   84 % 0 in /  0.0 mm
23:33 56.8 °F /  13.8 °C 52.2 °F /  11.2 °C 30.2 in /  1022.9 hPa Calm     84 % 0 in /  0.0 mm
23:35 53.8 °F /  12.1 °C 50.5 °F /  10.3 °C 30.2 in /  1020.9 hPa Calm   1 mph /  1.6 km/h 89 % 0 in /  0.0 mm
23:38 56.8 °F /  13.8 °C 52.2 °F /  11.2 °C 30.2 in /  1022.9 hPa Calm     84 % 0 in /  0.0 mm
23:43 56.8 °F /  13.8 °C 52.2 °F /  11.2 °C 30.2 in /  1022.9 hPa Calm     84 % 0 in /  0.0 mm
23:45 54 °F /  12.2 °C 50.7 °F /  10.4 °C 30.2 in /  1020.9 hPa Calm     89 % 0 in /  0.0 mm
23:48 56.8 °F /  13.8 °C 52.2 °F /  11.2 °C 30.2 in /  1022.9 hPa Calm     84 % 0 in /  0.0 mm
23:53 56.7 °F /  13.7 °C 52 °F /  11.1 °C 30.2 in /  1021.9 hPa Calm     84 % 0 in /  0.0 mm
23:55 53.8 °F /  12.1 °C 50.5 °F /  10.3 °C 30.2 in /  1020.9 hPa WSW 1 mph /  1.6 km/h 1 mph /  1.6 km/h 89 % 0 in /  0.0 mm
23:58 56.7 °F /  13.7 °C 52.2 °F /  11.2 °C 30.2 in /  1021.9 hPa Calm     85 % 0 in /  0.0 mm
Meteo Sesrovires
Elogis d' Weather Underground - 3.5 mb

Guio original per  Jim McMurry - jmcmurry@mwt.net Adaptat per a la plantilla per  Wim van der Kuil - Leuven-Template.eu

Trobareu la nostra informacio del temps tambe a:

Weather Underground

AWEKAS